createdAt,value
2019-02-16T20:35:32.143Z,1019.95
2019-02-16T20:36:31.991Z,1019.99
2019-02-16T20:38:07.494Z,1019.98
2019-02-16T20:39:07.502Z,1019.90
2019-02-16T20:40:07.442Z,1019.96
2019-02-16T20:41:07.425Z,1019.90
2019-02-16T20:42:07.408Z,1019.94
2019-02-16T20:43:07.401Z,1019.92
2019-02-16T20:44:07.397Z,1019.94
2019-02-16T20:45:07.392Z,1019.87
2019-02-16T20:46:07.398Z,1019.88
2019-02-16T20:47:07.360Z,1019.88
2019-02-16T20:48:07.344Z,1019.91
2019-02-16T20:49:07.332Z,1019.85
2019-02-16T20:50:07.320Z,1019.85
2019-02-16T20:51:07.314Z,1019.88
2019-02-16T20:52:07.307Z,1019.85
2019-02-16T20:53:07.291Z,1019.84
2019-02-16T20:54:07.278Z,1019.88
2019-02-16T20:55:07.277Z,1019.88
2019-02-16T20:56:07.258Z,1019.88
2019-02-16T20:57:07.248Z,1019.88
2019-02-16T20:58:07.239Z,1019.87
2019-02-16T20:59:07.246Z,1019.93
2019-02-16T21:00:07.215Z,1019.89
2019-02-16T21:01:07.213Z,1019.86
2019-02-16T21:02:07.199Z,1019.85
2019-02-16T21:03:07.190Z,1019.84
2019-02-16T21:04:07.188Z,1019.90
2019-02-16T21:05:07.178Z,1019.92
2019-02-16T21:06:07.153Z,1019.88
2019-02-16T21:07:07.150Z,1019.96
2019-02-16T21:08:07.139Z,1019.94
2019-02-16T21:09:07.129Z,1019.94
2019-02-16T21:10:07.127Z,1019.94
2019-02-16T21:11:07.119Z,1019.94
2019-02-16T21:12:07.094Z,1019.96
2019-02-16T21:13:07.088Z,1019.95
2019-02-16T21:14:07.079Z,1019.93
2019-02-16T21:15:07.068Z,1019.92
2019-02-16T21:16:07.053Z,1019.93
2019-02-16T21:17:07.040Z,1019.94
2019-02-16T21:18:07.033Z,1019.92
2019-02-16T21:19:07.020Z,1019.96
2019-02-16T21:20:07.011Z,1019.95
2019-02-16T21:21:07.001Z,1019.95
2019-02-16T21:22:08.751Z,1019.99
2019-02-16T21:23:06.979Z,1019.96
2019-02-16T21:24:06.969Z,1019.96
2019-02-16T21:25:06.963Z,1019.99
2019-02-16T21:26:06.949Z,1019.91
2019-02-16T21:27:06.948Z,1019.98
2019-02-16T21:28:06.922Z,1019.96
2019-02-16T21:29:06.909Z,1019.96
2019-02-16T21:30:06.890Z,1019.95
2019-02-16T21:31:06.891Z,1019.96
2019-02-16T21:32:06.870Z,1019.94
2019-02-16T21:33:06.860Z,1019.93
2019-02-16T21:34:06.866Z,1019.89
2019-02-16T21:35:06.841Z,1019.95
2019-02-16T21:36:06.833Z,1019.91
2019-02-16T21:37:06.831Z,1019.94
2019-02-16T21:38:06.813Z,1019.93
2019-02-16T21:39:06.797Z,1019.93
2019-02-16T21:40:06.793Z,1019.93
2019-02-16T21:41:06.787Z,1019.93
2019-02-16T21:42:06.770Z,1019.93
2019-02-16T21:43:06.754Z,1019.93
2019-02-16T21:44:06.753Z,1019.92
2019-02-16T21:45:06.749Z,1019.94
2019-02-16T21:46:06.723Z,1019.94
2019-02-16T21:47:06.710Z,1019.91
2019-02-16T21:48:06.704Z,1019.91
2019-02-16T21:49:06.685Z,1019.89
2019-02-16T21:50:06.680Z,1019.89
2019-02-16T21:51:06.663Z,1019.90
2019-02-16T21:52:06.666Z,1019.82
2019-02-16T21:53:07.584Z,1019.83
2019-02-16T21:54:06.628Z,1019.86
2019-02-16T21:55:06.619Z,1019.87
2019-02-16T21:56:06.607Z,1019.91
2019-02-16T21:57:06.594Z,1019.89
2019-02-16T21:58:08.301Z,1019.90
2019-02-16T21:59:07.635Z,1019.91
2019-02-16T22:00:06.570Z,1019.91
2019-02-16T22:01:06.558Z,1019.95
2019-02-16T22:02:06.558Z,1019.94
2019-02-16T22:03:06.531Z,1019.92
2019-02-16T22:04:06.520Z,1019.98
2019-02-16T22:05:06.507Z,1020.01
2019-02-16T22:06:06.500Z,1019.97
2019-02-16T22:07:06.502Z,1019.97
2019-02-16T22:08:06.476Z,1019.99
2019-02-16T22:09:06.466Z,1020.02
2019-02-16T22:10:06.455Z,1020.02
2019-02-16T22:11:06.446Z,1020.02
2019-02-16T22:12:06.435Z,1019.97
2019-02-16T22:13:06.422Z,1020.01
2019-02-16T22:14:06.410Z,1019.98
2019-02-16T22:15:06.403Z,1019.96
2019-02-16T22:16:06.391Z,1019.96
2019-02-16T22:17:06.380Z,1019.97
2019-02-16T22:18:06.368Z,1019.98
2019-02-16T22:19:06.357Z,1019.97
2019-02-16T22:20:06.350Z,1019.96
2019-02-16T22:21:06.338Z,1019.98
2019-02-16T22:22:06.324Z,1020.00
2019-02-16T22:23:06.319Z,1020.01
2019-02-16T22:24:06.329Z,1020.02
2019-02-16T22:25:06.304Z,1020.02
2019-02-16T22:26:06.282Z,1020.07
2019-02-16T22:27:06.278Z,1019.98
2019-02-16T22:28:06.258Z,1020.07
2019-02-16T22:29:06.247Z,1020.09
2019-02-16T22:30:06.237Z,1020.08
2019-02-16T22:31:06.227Z,1020.09
2019-02-16T22:32:06.213Z,1020.12
2019-02-16T22:33:06.202Z,1020.13
2019-02-16T22:34:06.191Z,1020.15
2019-02-16T22:35:06.186Z,1020.12
2019-02-16T22:36:06.171Z,1020.09
2019-02-16T22:37:06.161Z,1020.11
2019-02-16T22:38:06.148Z,1020.08
2019-02-16T22:39:06.152Z,1020.10
2019-02-16T22:40:06.126Z,1020.10
2019-02-16T22:41:06.162Z,1020.12
2019-02-16T22:42:06.106Z,1020.14
2019-02-16T22:43:06.098Z,1020.14
2019-02-16T22:44:06.098Z,1020.14
2019-02-16T22:45:06.070Z,1020.17
2019-02-16T22:46:06.060Z,1020.15
2019-02-16T22:47:06.049Z,1020.14
2019-02-16T22:48:06.048Z,1020.17
2019-02-16T22:49:06.032Z,1020.16
2019-02-16T22:50:06.036Z,1020.14
2019-02-16T22:51:06.011Z,1020.15
2019-02-16T22:52:05.996Z,1020.17
2019-02-16T22:53:06.054Z,1020.19
2019-02-16T22:54:05.983Z,1020.11
2019-02-16T22:55:05.964Z,1020.17
2019-02-16T22:56:05.972Z,1020.13
2019-02-16T22:57:05.941Z,1020.13
2019-02-16T22:58:05.930Z,1020.12
2019-02-16T22:59:05.919Z,1020.12
2019-02-16T23:00:05.909Z,1020.15
2019-02-16T23:01:05.894Z,1020.12
2019-02-16T23:02:05.892Z,1020.14
2019-02-16T23:03:05.882Z,1020.14
2019-02-16T23:04:05.882Z,1020.19
2019-02-16T23:05:05.865Z,1020.15
2019-02-16T23:06:05.843Z,1020.23
2019-02-16T23:07:05.834Z,1020.22
2019-02-16T23:08:05.823Z,1020.17
2019-02-16T23:09:05.811Z,1020.21
2019-02-16T23:10:05.799Z,1020.20
2019-02-16T23:11:05.797Z,1020.20
2019-02-16T23:12:05.779Z,1020.21
2019-02-16T23:13:05.773Z,1020.22
2019-02-16T23:14:05.759Z,1020.26
2019-02-16T23:15:05.746Z,1020.22
2019-02-16T23:16:05.735Z,1020.22
2019-02-16T23:17:05.728Z,1020.24
2019-02-16T23:18:05.720Z,1020.22
2019-02-16T23:19:05.702Z,1020.24
2019-02-16T23:20:05.693Z,1020.21
2019-02-16T23:21:05.690Z,1020.27
2019-02-16T23:22:05.670Z,1020.22
2019-02-16T23:23:05.659Z,1020.24
2019-02-16T23:24:05.651Z,1020.24
2019-02-16T23:25:05.638Z,1020.21
2019-02-16T23:26:05.628Z,1020.22
2019-02-16T23:27:05.618Z,1020.31
2019-02-16T23:28:05.609Z,1020.26
2019-02-16T23:29:05.604Z,1020.26
2019-02-16T23:30:05.586Z,1020.30
2019-02-16T23:31:05.574Z,1020.25
2019-02-16T23:32:05.597Z,1020.26
2019-02-16T23:33:05.549Z,1020.28
2019-02-16T23:34:05.540Z,1020.27
2019-02-16T23:35:05.549Z,1020.28
2019-02-16T23:36:05.518Z,1020.27
2019-02-16T23:37:05.509Z,1020.26
2019-02-16T23:38:05.495Z,1020.30
2019-02-16T23:39:05.485Z,1020.29
2019-02-16T23:40:05.474Z,1020.29
2019-02-16T23:41:06.448Z,1020.31
2019-02-16T23:42:05.453Z,1020.34
2019-02-16T23:43:05.440Z,1020.31
2019-02-16T23:44:05.435Z,1020.31
2019-02-16T23:45:05.454Z,1020.35
2019-02-16T23:46:05.412Z,1020.31
2019-02-16T23:47:05.402Z,1020.35
2019-02-16T23:48:05.387Z,1020.30
2019-02-16T23:49:05.378Z,1020.32
2019-02-16T23:50:05.363Z,1020.33
2019-02-16T23:51:05.351Z,1020.33
2019-02-16T23:52:05.344Z,1020.34
2019-02-16T23:53:05.329Z,1020.32
2019-02-16T23:54:05.318Z,1020.36
2019-02-16T23:55:05.312Z,1020.34
2019-02-16T23:56:05.299Z,1020.36
2019-02-16T23:57:05.305Z,1020.30
2019-02-16T23:58:05.280Z,1020.33
2019-02-16T23:59:05.266Z,1020.31
